Meteo Giornale » Osservazioni meteo Stati Uniti (USA) » Lakehurst Naval Air Station

ore: 10:00 - Osservazioni Meteo Lakehurst Naval Air Station
Lat. 40° 2' N Lon. 74° 19' W Alt. 31 metri s.l.m.

nuvoloso America/New_York

23 °C

Nuvoloso

Temp. 24 Ore

11 °C

24 °C

Est

20.3 Km/h

Dew point 17 °C

Umidità 68 %

Visibilità  10 Km

Il sole sorge alle ore 06:43

Il sole tramonta alle ore 18:57

Data e Ora Cielo e Fenomeni T °C DP °C Um. % Pres. hPa Vis. km Vento km/h
Oggi h: 10:00 nuvoloso Nuvoloso 23 17 68 1026 10 E 20.3
Oggi h: 09:06 poco_nuvoloso Poco Nuvoloso 21 17 77 1027 10 E/NE 9.3
Oggi h: 09:00 poco_nuvoloso Poco Nuvoloso 21 17 77 1026 10 E/NE 11.1
Oggi h: 08:42 molto_nuvoloso Molto Nuvoloso 20 17 82 1027 10 E/NE 11.1
Oggi h: 08:06 poco_nuvoloso Poco Nuvoloso 16 14 87 1027 10 N 0
Oggi h: 08:00 nuvoloso Nuvoloso 16 14 87 1027 10 N 0
Oggi h: 07:38 molto_nuvoloso Molto Nuvoloso 13 13 100 1027 10 N 0
Oggi h: 06:00 nuvoloso Nuvoloso 11 11 100 1026 10 N 0
Oggi h: 05:00 molto_nuvoloso Molto Nuvoloso 12 11 93 1026 10 N 0
Oggi h: 04:00 sereno Sereno 11 10 93 1026 10 N 0
Oggi h: 03:00 nuvoloso Nuvoloso 11 11 100 1026 10 N 0
Oggi h: 02:00 sereno Sereno 11 11 100 1027 10 N 0
Oggi h: 01:00 sereno Sereno 12 11 93 1027 10 N 0
Oggi h: 00:00 poco_nuvoloso Poco Nuvoloso 13 12 93 1027 10 N 0
Ieri h: 23:00 poco_nuvoloso Poco Nuvoloso 12 12 100 1027 10 N 0
Ieri h: 22:00 poco_nuvoloso Poco Nuvoloso 13 12 93 1027 10 N 0
Ieri h: 20:00 sereno Sereno 17 13 77 1027 10 N 5.5
Ieri h: 19:00 sereno Sereno 20 13 64 1026 10 E 11.1
Ieri h: 18:00 sereno Sereno 22 12 53 1026 10 E 14.8
Ieri h: 17:00 sereno Sereno 23 12 49 1026 10 E 22.2
Ieri h: 16:00 poco_nuvoloso Poco Nuvoloso 23 13 53 1026 10 E/SE 18.5
Ieri h: 15:00 poco_nuvoloso Poco Nuvoloso 23 13 53 1027 10 E/SE 14.8
Ieri h: 14:00 poco_nuvoloso Poco Nuvoloso 24 13 50 1027 10 E/SE 14.8
Ieri h: 13:00 molto_nuvoloso Molto Nuvoloso 24 13 50 1027 10 E 16.7
Ieri h: 12:00 poco_nuvoloso Poco Nuvoloso 24 12 47 1027 10 E/SE 18.5
Ieri h: 11:00 poco_nuvoloso Poco Nuvoloso 23 14 56 1027 10 E/NE 16.7